sensor_id;sensor_type;location;lat;lon;timestamp;P1;durP1;ratioP1;P2;durP2;ratioP2
30149;SDS011;16962;48.646;9.026;2023-08-12T00:00:00;10.13;;;6.25;;
30149;SDS011;16962;48.646;9.026;2023-08-12T00:02:58;9.40;;;5.75;;
30149;SDS011;16962;48.646;9.026;2023-08-12T00:05:47;12.55;;;5.75;;
30149;SDS011;16962;48.646;9.026;2023-08-12T00:08:35;10.65;;;6.03;;
30149;SDS011;16962;48.646;9.026;2023-08-12T00:11:22;12.02;;;5.72;;
30149;SDS011;16962;48.646;9.026;2023-08-12T00:14:09;9.68;;;6.47;;
30149;SDS011;16962;48.646;9.026;2023-08-12T00:16:59;13.23;;;5.72;;
30149;SDS011;16962;48.646;9.026;2023-08-12T00:19:49;12.80;;;6.13;;
30149;SDS011;16962;48.646;9.026;2023-08-12T00:22:39;8.05;;;5.95;;
30149;SDS011;16962;48.646;9.026;2023-08-12T00:25:27;21.75;;;7.47;;
30149;SDS011;16962;48.646;9.026;2023-08-12T00:28:15;7.80;;;5.57;;
30149;SDS011;16962;48.646;9.026;2023-08-12T00:31:02;9.38;;;6.40;;
30149;SDS011;16962;48.646;9.026;2023-08-12T00:33:50;8.85;;;6.18;;
30149;SDS011;16962;48.646;9.026;2023-08-12T00:36:44;7.50;;;5.38;;
30149;SDS011;16962;48.646;9.026;2023-08-12T00:39:45;8.50;;;6.53;;
30149;SDS011;16962;48.646;9.026;2023-08-12T00:42:32;9.57;;;6.00;;
30149;SDS011;16962;48.646;9.026;2023-08-12T00:45:20;9.52;;;6.30;;
30149;SDS011;16962;48.646;9.026;2023-08-12T00:48:07;16.15;;;6.32;;
30149;SDS011;16962;48.646;9.026;2023-08-12T00:51:00;8.00;;;6.22;;
30149;SDS011;16962;48.646;9.026;2023-08-12T00:53:48;9.57;;;6.30;;
30149;SDS011;16962;48.646;9.026;2023-08-12T00:56:40;10.32;;;6.18;;
30149;SDS011;16962;48.646;9.026;2023-08-12T00:59:27;10.90;;;7.05;;
30149;SDS011;16962;48.646;9.026;2023-08-12T01:02:19;6.85;;;5.93;;
30149;SDS011;16962;48.646;9.026;2023-08-12T01:05:06;8.57;;;6.70;;
30149;SDS011;16962;48.646;9.026;2023-08-12T01:07:56;9.55;;;6.25;;
30149;SDS011;16962;48.646;9.026;2023-08-12T01:10:45;8.23;;;6.43;;
30149;SDS011;16962;48.646;9.026;2023-08-12T01:13:44;7.97;;;6.13;;
30149;SDS011;16962;48.646;9.026;2023-08-12T01:16:39;10.50;;;6.10;;
30149;SDS011;16962;48.646;9.026;2023-08-12T01:19:33;7.18;;;5.40;;
30149;SDS011;16962;48.646;9.026;2023-08-12T01:22:23;8.85;;;5.72;;
30149;SDS011;16962;48.646;9.026;2023-08-12T01:25:12;8.43;;;5.45;;
30149;SDS011;16962;48.646;9.026;2023-08-12T01:28:00;7.40;;;4.65;;
30149;SDS011;16962;48.646;9.026;2023-08-12T01:34:30;6.60;;;4.50;;
30149;SDS011;16962;48.646;9.026;2023-08-12T01:37:38;8.75;;;5.10;;
30149;SDS011;16962;48.646;9.026;2023-08-12T01:40:50;6.88;;;5.00;;
30149;SDS011;16962;48.646;9.026;2023-08-12T01:44:09;6.40;;;4.80;;
30149;SDS011;16962;48.646;9.026;2023-08-12T01:46:56;6.03;;;5.20;;
30149;SDS011;16962;48.646;9.026;2023-08-12T01:49:44;7.57;;;5.38;;
30149;SDS011;16962;48.646;9.026;2023-08-12T01:52:31;8.93;;;4.93;;
30149;SDS011;16962;48.646;9.026;2023-08-12T01:55:19;10.20;;;5.28;;
30149;SDS011;16962;48.646;9.026;2023-08-12T01:58:08;9.20;;;5.25;;
30149;SDS011;16962;48.646;9.026;2023-08-12T02:00:55;5.32;;;4.70;;
30149;SDS011;16962;48.646;9.026;2023-08-12T02:03:45;5.95;;;5.15;;
30149;SDS011;16962;48.646;9.026;2023-08-12T02:06:37;7.70;;;5.20;;
30149;SDS011;16962;48.646;9.026;2023-08-12T02:09:24;7.95;;;5.22;;
30149;SDS011;16962;48.646;9.026;2023-08-12T02:12:11;5.82;;;4.78;;
30149;SDS011;16962;48.646;9.026;2023-08-12T02:15:01;8.25;;;5.25;;
30149;SDS011;16962;48.646;9.026;2023-08-12T02:17:48;9.27;;;5.68;;
30149;SDS011;16962;48.646;9.026;2023-08-12T02:20:37;9.68;;;5.28;;
30149;SDS011;16962;48.646;9.026;2023-08-12T02:23:26;7.38;;;5.00;;
30149;SDS011;16962;48.646;9.026;2023-08-12T02:26:16;6.65;;;5.35;;
30149;SDS011;16962;48.646;9.026;2023-08-12T02:29:06;9.10;;;5.55;;
30149;SDS011;16962;48.646;9.026;2023-08-12T02:31:55;10.95;;;5.63;;
30149;SDS011;16962;48.646;9.026;2023-08-12T02:34:42;11.20;;;6.25;;
30149;SDS011;16962;48.646;9.026;2023-08-12T02:37:31;7.15;;;5.30;;
30149;SDS011;16962;48.646;9.026;2023-08-12T02:40:18;7.75;;;5.03;;
30149;SDS011;16962;48.646;9.026;2023-08-12T02:43:06;7.10;;;5.10;;
30149;SDS011;16962;48.646;9.026;2023-08-12T02:45:53;10.52;;;5.47;;
30149;SDS011;16962;48.646;9.026;2023-08-12T02:48:41;9.65;;;5.80;;
30149;SDS011;16962;48.646;9.026;2023-08-12T02:51:29;6.53;;;5.55;;
30149;SDS011;16962;48.646;9.026;2023-08-12T02:54:16;8.63;;;5.47;;
30149;SDS011;16962;48.646;9.026;2023-08-12T02:57:03;8.00;;;5.65;;
30149;SDS011;16962;48.646;9.026;2023-08-12T02:59:51;8.68;;;5.55;;
30149;SDS011;16962;48.646;9.026;2023-08-12T03:02:41;7.32;;;5.32;;
30149;SDS011;16962;48.646;9.026;2023-08-12T03:05:31;11.18;;;6.03;;
30149;SDS011;16962;48.646;9.026;2023-08-12T03:08:19;9.57;;;5.15;;
30149;SDS011;16962;48.646;9.026;2023-08-12T03:11:06;8.20;;;5.18;;
30149;SDS011;16962;48.646;9.026;2023-08-12T03:13:53;7.40;;;5.95;;
30149;SDS011;16962;48.646;9.026;2023-08-12T03:16:40;6.95;;;5.43;;
30149;SDS011;16962;48.646;9.026;2023-08-12T03:19:28;6.60;;;5.20;;
30149;SDS011;16962;48.646;9.026;2023-08-12T03:22:17;7.05;;;5.40;;
30149;SDS011;16962;48.646;9.026;2023-08-12T03:25:07;7.43;;;5.60;;
30149;SDS011;16962;48.646;9.026;2023-08-12T03:27:55;8.02;;;6.20;;
30149;SDS011;16962;48.646;9.026;2023-08-12T03:30:42;8.57;;;6.38;;
30149;SDS011;16962;48.646;9.026;2023-08-12T03:33:36;6.68;;;5.63;;
30149;SDS011;16962;48.646;9.026;2023-08-12T03:36:26;9.15;;;5.70;;
30149;SDS011;16962;48.646;9.026;2023-08-12T03:39:13;5.78;;;5.18;;
30149;SDS011;16962;48.646;9.026;2023-08-12T03:42:00;9.98;;;5.18;;
30149;SDS011;16962;48.646;9.026;2023-08-12T03:44:50;5.35;;;4.75;;
30149;SDS011;16962;48.646;9.026;2023-08-12T03:47:39;11.75;;;5.10;;
30149;SDS011;16962;48.646;9.026;2023-08-12T03:50:27;7.35;;;5.65;;
30149;SDS011;16962;48.646;9.026;2023-08-12T03:53:16;7.28;;;5.72;;
30149;SDS011;16962;48.646;9.026;2023-08-12T03:56:04;6.82;;;4.80;;
30149;SDS011;16962;48.646;9.026;2023-08-12T03:58:51;7.32;;;5.15;;
30149;SDS011;16962;48.646;9.026;2023-08-12T04:04:31;6.10;;;5.38;;
30149;SDS011;16962;48.646;9.026;2023-08-12T04:07:18;13.27;;;5.88;;
30149;SDS011;16962;48.646;9.026;2023-08-12T04:10:11;7.38;;;5.65;;
30149;SDS011;16962;48.646;9.026;2023-08-12T04:12:59;8.38;;;5.43;;
30149;SDS011;16962;48.646;9.026;2023-08-12T04:15:48;6.90;;;5.38;;
30149;SDS011;16962;48.646;9.026;2023-08-12T04:18:36;10.73;;;6.03;;
30149;SDS011;16962;48.646;9.026;2023-08-12T04:21:23;7.70;;;5.10;;
30149;SDS011;16962;48.646;9.026;2023-08-12T04:24:11;6.45;;;5.60;;
30149;SDS011;16962;48.646;9.026;2023-08-12T04:26:58;6.25;;;5.43;;
30149;SDS011;16962;48.646;9.026;2023-08-12T04:29:45;8.25;;;5.43;;
30149;SDS011;16962;48.646;9.026;2023-08-12T04:32:34;9.38;;;5.65;;
30149;SDS011;16962;48.646;9.026;2023-08-12T04:35:21;5.65;;;5.03;;
30149;SDS011;16962;48.646;9.026;2023-08-12T04:38:08;7.70;;;5.00;;
30149;SDS011;16962;48.646;9.026;2023-08-12T04:40:56;8.35;;;4.57;;
30149;SDS011;16962;48.646;9.026;2023-08-12T04:43:43;9.68;;;5.15;;
30149;SDS011;16962;48.646;9.026;2023-08-12T04:46:30;11.38;;;5.43;;
30149;SDS011;16962;48.646;9.026;2023-08-12T04:49:19;6.03;;;5.25;;
30149;SDS011;16962;48.646;9.026;2023-08-12T04:52:06;8.25;;;5.97;;
30149;SDS011;16962;48.646;9.026;2023-08-12T04:54:54;10.27;;;6.28;;
30149;SDS011;16962;48.646;9.026;2023-08-12T04:57:41;6.90;;;6.15;;
30149;SDS011;16962;48.646;9.026;2023-08-12T05:00:28;7.38;;;6.15;;
30149;SDS011;16962;48.646;9.026;2023-08-12T05:03:17;9.40;;;6.10;;
30149;SDS011;16962;48.646;9.026;2023-08-12T05:06:04;7.47;;;6.68;;
30149;SDS011;16962;48.646;9.026;2023-08-12T05:08:51;7.10;;;6.25;;
30149;SDS011;16962;48.646;9.026;2023-08-12T05:11:39;7.07;;;5.70;;
30149;SDS011;16962;48.646;9.026;2023-08-12T05:14:26;9.02;;;6.13;;
30149;SDS011;16962;48.646;9.026;2023-08-12T05:17:13;7.07;;;5.82;;
30149;SDS011;16962;48.646;9.026;2023-08-12T05:20:01;8.48;;;6.18;;
30149;SDS011;16962;48.646;9.026;2023-08-12T05:22:48;8.30;;;6.88;;
30149;SDS011;16962;48.646;9.026;2023-08-12T05:25:38;7.32;;;6.07;;
30149;SDS011;16962;48.646;9.026;2023-08-12T05:28:28;9.20;;;6.45;;
30149;SDS011;16962;48.646;9.026;2023-08-12T05:31:15;10.10;;;6.28;;
30149;SDS011;16962;48.646;9.026;2023-08-12T05:34:04;7.97;;;6.47;;
30149;SDS011;16962;48.646;9.026;2023-08-12T05:36:51;9.55;;;6.15;;
30149;SDS011;16962;48.646;9.026;2023-08-12T05:39:46;6.80;;;5.95;;
30149;SDS011;16962;48.646;9.026;2023-08-12T05:42:35;7.05;;;5.75;;
30149;SDS011;16962;48.646;9.026;2023-08-12T05:45:22;7.30;;;5.80;;
30149;SDS011;16962;48.646;9.026;2023-08-12T05:48:10;7.97;;;6.03;;
30149;SDS011;16962;48.646;9.026;2023-08-12T05:51:00;9.50;;;6.78;;
30149;SDS011;16962;48.646;9.026;2023-08-12T05:53:49;8.52;;;6.00;;
30149;SDS011;16962;48.646;9.026;2023-08-12T05:56:37;8.70;;;6.57;;
30149;SDS011;16962;48.646;9.026;2023-08-12T05:59:24;7.95;;;5.80;;
30149;SDS011;16962;48.646;9.026;2023-08-12T06:02:44;7.40;;;6.30;;
30149;SDS011;16962;48.646;9.026;2023-08-12T06:05:31;6.38;;;5.50;;
30149;SDS011;16962;48.646;9.026;2023-08-12T06:08:19;11.65;;;6.93;;
30149;SDS011;16962;48.646;9.026;2023-08-12T06:11:06;8.65;;;6.35;;
30149;SDS011;16962;48.646;9.026;2023-08-12T06:13:53;12.07;;;6.82;;
30149;SDS011;16962;48.646;9.026;2023-08-12T06:16:41;8.45;;;6.35;;
30149;SDS011;16962;48.646;9.026;2023-08-12T06:19:30;9.15;;;6.25;;
30149;SDS011;16962;48.646;9.026;2023-08-12T06:22:18;6.68;;;5.68;;
30149;SDS011;16962;48.646;9.026;2023-08-12T06:25:06;9.68;;;5.65;;
30149;SDS011;16962;48.646;9.026;2023-08-12T06:27:56;8.75;;;5.75;;
30149;SDS011;16962;48.646;9.026;2023-08-12T06:30:45;8.82;;;5.63;;
30149;SDS011;16962;48.646;9.026;2023-08-12T06:33:34;8.70;;;6.13;;
30149;SDS011;16962;48.646;9.026;2023-08-12T06:36:22;8.75;;;5.68;;
30149;SDS011;16962;48.646;9.026;2023-08-12T06:39:17;9.10;;;5.25;;
30149;SDS011;16962;48.646;9.026;2023-08-12T06:42:04;7.50;;;5.40;;
30149;SDS011;16962;48.646;9.026;2023-08-12T06:44:58;6.13;;;5.13;;
30149;SDS011;16962;48.646;9.026;2023-08-12T06:47:47;6.00;;;4.93;;
30149;SDS011;16962;48.646;9.026;2023-08-12T06:50:34;7.05;;;5.13;;
30149;SDS011;16962;48.646;9.026;2023-08-12T06:53:21;8.45;;;5.18;;
30149;SDS011;16962;48.646;9.026;2023-08-12T06:56:09;7.07;;;5.68;;
30149;SDS011;16962;48.646;9.026;2023-08-12T06:58:57;6.00;;;5.35;;
30149;SDS011;16962;48.646;9.026;2023-08-12T07:01:44;5.97;;;5.38;;
30149;SDS011;16962;48.646;9.026;2023-08-12T07:04:34;8.55;;;5.40;;
30149;SDS011;16962;48.646;9.026;2023-08-12T07:07:24;10.40;;;5.72;;
30149;SDS011;16962;48.646;9.026;2023-08-12T07:10:13;5.55;;;4.60;;
30149;SDS011;16962;48.646;9.026;2023-08-12T07:13:00;7.50;;;5.57;;
30149;SDS011;16962;48.646;9.026;2023-08-12T07:15:47;8.05;;;5.15;;
30149;SDS011;16962;48.646;9.026;2023-08-12T07:18:53;6.75;;;5.03;;
30149;SDS011;16962;48.646;9.026;2023-08-12T07:21:41;7.85;;;4.93;;
30149;SDS011;16962;48.646;9.026;2023-08-12T07:24:30;12.45;;;5.00;;
30149;SDS011;16962;48.646;9.026;2023-08-12T07:27:19;6.60;;;5.15;;
30149;SDS011;16962;48.646;9.026;2023-08-12T07:30:11;5.25;;;3.85;;
30149;SDS011;16962;48.646;9.026;2023-08-12T07:32:59;4.68;;;3.58;;
30149;SDS011;16962;48.646;9.026;2023-08-12T07:35:50;7.07;;;3.65;;
30149;SDS011;16962;48.646;9.026;2023-08-12T07:38:37;9.60;;;3.83;;
30149;SDS011;16962;48.646;9.026;2023-08-12T07:41:25;5.10;;;3.47;;
30149;SDS011;16962;48.646;9.026;2023-08-12T07:44:14;5.68;;;3.47;;
30149;SDS011;16962;48.646;9.026;2023-08-12T07:47:03;4.45;;;3.22;;
30149;SDS011;16962;48.646;9.026;2023-08-12T07:49:54;5.90;;;3.40;;
30149;SDS011;16962;48.646;9.026;2023-08-12T07:52:44;5.70;;;3.35;;
30149;SDS011;16962;48.646;9.026;2023-08-12T07:55:33;5.47;;;2.97;;
30149;SDS011;16962;48.646;9.026;2023-08-12T07:58:21;3.67;;;3.08;;
30149;SDS011;16962;48.646;9.026;2023-08-12T08:01:09;7.40;;;3.00;;
30149;SDS011;16962;48.646;9.026;2023-08-12T08:03:56;7.68;;;3.15;;
30149;SDS011;16962;48.646;9.026;2023-08-12T08:06:46;9.07;;;3.40;;
30149;SDS011;16962;48.646;9.026;2023-08-12T08:09:37;4.63;;;3.00;;
30149;SDS011;16962;48.646;9.026;2023-08-12T08:12:24;9.15;;;3.38;;
30149;SDS011;16962;48.646;9.026;2023-08-12T08:15:11;9.13;;;2.90;;
30149;SDS011;16962;48.646;9.026;2023-08-12T08:17:58;5.50;;;3.15;;
30149;SDS011;16962;48.646;9.026;2023-08-12T08:20:48;4.13;;;2.70;;
30149;SDS011;16962;48.646;9.026;2023-08-12T08:23:35;4.80;;;2.67;;
30149;SDS011;16962;48.646;9.026;2023-08-12T08:26:22;6.47;;;2.80;;
30149;SDS011;16962;48.646;9.026;2023-08-12T08:29:09;5.60;;;2.80;;
30149;SDS011;16962;48.646;9.026;2023-08-12T08:31:57;8.35;;;3.47;;
30149;SDS011;16962;48.646;9.026;2023-08-12T08:34:47;4.75;;;2.40;;
30149;SDS011;16962;48.646;9.026;2023-08-12T08:37:34;3.17;;;2.63;;
30149;SDS011;16962;48.646;9.026;2023-08-12T08:40:21;5.57;;;2.70;;
30149;SDS011;16962;48.646;9.026;2023-08-12T08:43:09;24.85;;;5.95;;
30149;SDS011;16962;48.646;9.026;2023-08-12T08:46:00;3.85;;;2.72;;
30149;SDS011;16962;48.646;9.026;2023-08-12T08:48:49;3.67;;;2.90;;
30149;SDS011;16962;48.646;9.026;2023-08-12T08:51:38;4.80;;;2.90;;
30149;SDS011;16962;48.646;9.026;2023-08-12T08:54:25;3.85;;;2.92;;
30149;SDS011;16962;48.646;9.026;2023-08-12T08:57:13;4.55;;;2.90;;
30149;SDS011;16962;48.646;9.026;2023-08-12T09:00:05;8.13;;;2.90;;
30149;SDS011;16962;48.646;9.026;2023-08-12T09:03:00;4.05;;;3.08;;
30149;SDS011;16962;48.646;9.026;2023-08-12T09:05:49;4.90;;;3.13;;
30149;SDS011;16962;48.646;9.026;2023-08-12T09:08:38;5.47;;;2.75;;
30149;SDS011;16962;48.646;9.026;2023-08-12T09:11:31;4.85;;;2.72;;
30149;SDS011;16962;48.646;9.026;2023-08-12T09:14:19;7.03;;;2.50;;
30149;SDS011;16962;48.646;9.026;2023-08-12T09:17:10;7.40;;;2.95;;
30149;SDS011;16962;48.646;9.026;2023-08-12T09:19:57;4.88;;;2.58;;
30149;SDS011;16962;48.646;9.026;2023-08-12T09:22:45;8.70;;;3.00;;
30149;SDS011;16962;48.646;9.026;2023-08-12T09:25:32;5.90;;;3.13;;
30149;SDS011;16962;48.646;9.026;2023-08-12T09:28:21;5.47;;;2.70;;
30149;SDS011;16962;48.646;9.026;2023-08-12T09:31:21;4.88;;;2.70;;
30149;SDS011;16962;48.646;9.026;2023-08-12T09:34:09;6.93;;;2.65;;
30149;SDS011;16962;48.646;9.026;2023-08-12T09:36:56;6.85;;;3.10;;
30149;SDS011;16962;48.646;9.026;2023-08-12T09:39:46;4.72;;;2.75;;
30149;SDS011;16962;48.646;9.026;2023-08-12T09:42:36;6.07;;;2.97;;
30149;SDS011;16962;48.646;9.026;2023-08-12T09:45:32;5.50;;;2.75;;
30149;SDS011;16962;48.646;9.026;2023-08-12T09:48:20;5.72;;;3.03;;
30149;SDS011;16962;48.646;9.026;2023-08-12T09:51:08;3.55;;;2.95;;
30149;SDS011;16962;48.646;9.026;2023-08-12T09:53:55;4.45;;;2.60;;
30149;SDS011;16962;48.646;9.026;2023-08-12T09:56:43;8.13;;;3.40;;
30149;SDS011;16962;48.646;9.026;2023-08-12T09:59:35;5.32;;;3.38;;
30149;SDS011;16962;48.646;9.026;2023-08-12T10:02:27;4.97;;;2.85;;
30149;SDS011;16962;48.646;9.026;2023-08-12T10:05:16;3.95;;;2.78;;
30149;SDS011;16962;48.646;9.026;2023-08-12T10:08:08;6.03;;;3.35;;
30149;SDS011;16962;48.646;9.026;2023-08-12T10:10:56;6.50;;;2.90;;
30149;SDS011;16962;48.646;9.026;2023-08-12T10:13:58;4.20;;;3.00;;
30149;SDS011;16962;48.646;9.026;2023-08-12T10:16:46;9.27;;;3.42;;
30149;SDS011;16962;48.646;9.026;2023-08-12T10:19:33;9.68;;;3.53;;
30149;SDS011;16962;48.646;9.026;2023-08-12T10:22:22;5.38;;;3.13;;
30149;SDS011;16962;48.646;9.026;2023-08-12T10:25:13;6.07;;;4.32;;
30149;SDS011;16962;48.646;9.026;2023-08-12T10:28:01;9.07;;;4.45;;
30149;SDS011;16962;48.646;9.026;2023-08-12T10:30:50;7.82;;;3.63;;
30149;SDS011;16962;48.646;9.026;2023-08-12T10:33:41;5.05;;;3.00;;
30149;SDS011;16962;48.646;9.026;2023-08-12T10:36:31;6.65;;;3.30;;
30149;SDS011;16962;48.646;9.026;2023-08-12T10:39:18;3.78;;;3.25;;
30149;SDS011;16962;48.646;9.026;2023-08-12T10:42:12;7.35;;;3.17;;
30149;SDS011;16962;48.646;9.026;2023-08-12T10:45:03;5.97;;;3.22;;
30149;SDS011;16962;48.646;9.026;2023-08-12T10:50:48;5.68;;;3.38;;
30149;SDS011;16962;48.646;9.026;2023-08-12T10:53:44;4.45;;;2.75;;
30149;SDS011;16962;48.646;9.026;2023-08-12T10:57:03;5.38;;;2.75;;
30149;SDS011;16962;48.646;9.026;2023-08-12T11:00:10;5.93;;;2.90;;
30149;SDS011;16962;48.646;9.026;2023-08-12T11:03:16;4.20;;;2.88;;
30149;SDS011;16962;48.646;9.026;2023-08-12T11:06:03;4.13;;;2.95;;
30149;SDS011;16962;48.646;9.026;2023-08-12T11:08:53;6.43;;;2.67;;
30149;SDS011;16962;48.646;9.026;2023-08-12T11:11:42;4.53;;;2.72;;
30149;SDS011;16962;48.646;9.026;2023-08-12T11:14:30;4.15;;;2.67;;
30149;SDS011;16962;48.646;9.026;2023-08-12T11:17:17;4.53;;;3.17;;
30149;SDS011;16962;48.646;9.026;2023-08-12T11:20:05;4.13;;;2.90;;
30149;SDS011;16962;48.646;9.026;2023-08-12T11:22:55;8.05;;;2.85;;
30149;SDS011;16962;48.646;9.026;2023-08-12T11:25:45;9.10;;;3.33;;
30149;SDS011;16962;48.646;9.026;2023-08-12T11:28:37;6.40;;;3.03;;
30149;SDS011;16962;48.646;9.026;2023-08-12T11:31:27;4.57;;;2.85;;
30149;SDS011;16962;48.646;9.026;2023-08-12T11:34:17;4.75;;;2.80;;
30149;SDS011;16962;48.646;9.026;2023-08-12T11:37:04;4.22;;;2.47;;
30149;SDS011;16962;48.646;9.026;2023-08-12T11:39:52;15.32;;;4.80;;
30149;SDS011;16962;48.646;9.026;2023-08-12T11:42:40;3.95;;;2.90;;
30149;SDS011;16962;48.646;9.026;2023-08-12T11:45:32;6.28;;;2.67;;
30149;SDS011;16962;48.646;9.026;2023-08-12T11:48:24;20.00;;;4.78;;
30149;SDS011;16962;48.646;9.026;2023-08-12T11:51:12;6.28;;;3.00;;
30149;SDS011;16962;48.646;9.026;2023-08-12T11:54:00;8.88;;;3.17;;
30149;SDS011;16962;48.646;9.026;2023-08-12T11:56:48;6.85;;;2.88;;
30149;SDS011;16962;48.646;9.026;2023-08-12T11:59:36;6.53;;;3.22;;
30149;SDS011;16962;48.646;9.026;2023-08-12T12:02:24;4.25;;;2.70;;
30149;SDS011;16962;48.646;9.026;2023-08-12T12:05:11;23.05;;;4.30;;
30149;SDS011;16962;48.646;9.026;2023-08-12T12:07:59;13.90;;;3.90;;
30149;SDS011;16962;48.646;9.026;2023-08-12T12:10:52;6.47;;;2.90;;
30149;SDS011;16962;48.646;9.026;2023-08-12T12:13:50;4.53;;;2.95;;
30149;SDS011;16962;48.646;9.026;2023-08-12T12:16:45;5.60;;;2.97;;
30149;SDS011;16962;48.646;9.026;2023-08-12T12:19:35;4.53;;;2.88;;
30149;SDS011;16962;48.646;9.026;2023-08-12T12:22:43;7.78;;;2.80;;
30149;SDS011;16962;48.646;9.026;2023-08-12T12:25:32;18.38;;;3.58;;
30149;SDS011;16962;48.646;9.026;2023-08-12T12:28:20;12.70;;;4.95;;
30149;SDS011;16962;48.646;9.026;2023-08-12T12:31:14;13.63;;;4.65;;
30149;SDS011;16962;48.646;9.026;2023-08-12T12:34:02;9.93;;;4.50;;
30149;SDS011;16962;48.646;9.026;2023-08-12T12:36:53;15.32;;;5.50;;
30149;SDS011;16962;48.646;9.026;2023-08-12T12:39:40;12.52;;;5.30;;
30149;SDS011;16962;48.646;9.026;2023-08-12T12:42:28;15.13;;;6.05;;
30149;SDS011;16962;48.646;9.026;2023-08-12T12:45:16;10.95;;;5.65;;
30149;SDS011;16962;48.646;9.026;2023-08-12T12:48:03;15.93;;;6.70;;
30149;SDS011;16962;48.646;9.026;2023-08-12T12:50:51;10.75;;;5.90;;
30149;SDS011;16962;48.646;9.026;2023-08-12T12:53:38;14.63;;;7.43;;
30149;SDS011;16962;48.646;9.026;2023-08-12T12:56:27;15.20;;;6.70;;
30149;SDS011;16962;48.646;9.026;2023-08-12T12:59:14;11.27;;;6.20;;
30149;SDS011;16962;48.646;9.026;2023-08-12T13:02:02;14.48;;;5.72;;
30149;SDS011;16962;48.646;9.026;2023-08-12T13:04:49;8.20;;;5.10;;
30149;SDS011;16962;48.646;9.026;2023-08-12T13:07:42;14.13;;;6.03;;
30149;SDS011;16962;48.646;9.026;2023-08-12T13:10:44;11.32;;;5.57;;
30149;SDS011;16962;48.646;9.026;2023-08-12T13:13:31;9.98;;;5.55;;
30149;SDS011;16962;48.646;9.026;2023-08-12T13:16:18;10.10;;;5.30;;
30149;SDS011;16962;48.646;9.026;2023-08-12T13:19:06;9.80;;;5.53;;
30149;SDS011;16962;48.646;9.026;2023-08-12T13:21:53;8.70;;;5.82;;
30149;SDS011;16962;48.646;9.026;2023-08-12T13:24:41;11.95;;;5.13;;
30149;SDS011;16962;48.646;9.026;2023-08-12T13:27:29;10.43;;;4.90;;
30149;SDS011;16962;48.646;9.026;2023-08-12T13:30:18;8.63;;;4.53;;
30149;SDS011;16962;48.646;9.026;2023-08-12T13:33:06;11.73;;;3.75;;
30149;SDS011;16962;48.646;9.026;2023-08-12T13:35:53;4.32;;;3.08;;
30149;SDS011;16962;48.646;9.026;2023-08-12T13:38:43;4.35;;;2.90;;
30149;SDS011;16962;48.646;9.026;2023-08-12T13:41:30;5.93;;;2.30;;
30149;SDS011;16962;48.646;9.026;2023-08-12T13:44:18;3.28;;;2.17;;
30149;SDS011;16962;48.646;9.026;2023-08-12T13:47:07;4.05;;;1.98;;
30149;SDS011;16962;48.646;9.026;2023-08-12T13:49:55;4.80;;;2.10;;
30149;SDS011;16962;48.646;9.026;2023-08-12T13:52:46;4.57;;;1.70;;
30149;SDS011;16962;48.646;9.026;2023-08-12T13:55:37;3.03;;;1.48;;
30149;SDS011;16962;48.646;9.026;2023-08-12T13:58:24;3.42;;;1.60;;
30149;SDS011;16962;48.646;9.026;2023-08-12T14:01:11;5.82;;;1.67;;
30149;SDS011;16962;48.646;9.026;2023-08-12T14:03:59;5.00;;;1.70;;
30149;SDS011;16962;48.646;9.026;2023-08-12T14:06:46;4.60;;;1.73;;
30149;SDS011;16962;48.646;9.026;2023-08-12T14:09:37;17.38;;;1.73;;
30149;SDS011;16962;48.646;9.026;2023-08-12T14:12:25;4.40;;;1.77;;
30149;SDS011;16962;48.646;9.026;2023-08-12T14:15:12;2.53;;;1.55;;
30149;SDS011;16962;48.646;9.026;2023-08-12T14:18:00;2.33;;;1.58;;
30149;SDS011;16962;48.646;9.026;2023-08-12T14:20:47;2.75;;;1.65;;
30149;SDS011;16962;48.646;9.026;2023-08-12T14:23:34;4.57;;;1.73;;
30149;SDS011;16962;48.646;9.026;2023-08-12T14:26:23;3.38;;;1.45;;
30149;SDS011;16962;48.646;9.026;2023-08-12T14:29:10;3.22;;;1.60;;
30149;SDS011;16962;48.646;9.026;2023-08-12T14:31:57;2.42;;;1.30;;
30149;SDS011;16962;48.646;9.026;2023-08-12T14:34:45;2.97;;;1.45;;
30149;SDS011;16962;48.646;9.026;2023-08-12T14:37:33;2.97;;;1.45;;
30149;SDS011;16962;48.646;9.026;2023-08-12T14:40:20;2.25;;;1.40;;
30149;SDS011;16962;48.646;9.026;2023-08-12T14:43:12;3.17;;;1.50;;
30149;SDS011;16962;48.646;9.026;2023-08-12T14:46:01;1.83;;;1.30;;
30149;SDS011;16962;48.646;9.026;2023-08-12T14:48:51;8.93;;;2.03;;
30149;SDS011;16962;48.646;9.026;2023-08-12T14:52:00;5.88;;;1.60;;
30149;SDS011;16962;48.646;9.026;2023-08-12T14:54:50;2.10;;;1.50;;
30149;SDS011;16962;48.646;9.026;2023-08-12T14:57:44;1.75;;;1.30;;
30149;SDS011;16962;48.646;9.026;2023-08-12T15:00:50;2.28;;;1.55;;
30149;SDS011;16962;48.646;9.026;2023-08-12T15:03:53;2.30;;;1.77;;
30149;SDS011;16962;48.646;9.026;2023-08-12T15:06:57;2.28;;;1.92;;
30149;SDS011;16962;48.646;9.026;2023-08-12T15:13:26;3.65;;;2.15;;
30149;SDS011;16962;48.646;9.026;2023-08-12T15:16:23;6.43;;;2.47;;
30149;SDS011;16962;48.646;9.026;2023-08-12T15:19:26;3.03;;;1.80;;
30149;SDS011;16962;48.646;9.026;2023-08-12T15:22:25;4.95;;;2.53;;
30149;SDS011;16962;48.646;9.026;2023-08-12T15:25:45;3.05;;;2.35;;
30149;SDS011;16962;48.646;9.026;2023-08-12T15:28:55;4.05;;;2.67;;
30149;SDS011;16962;48.646;9.026;2023-08-12T15:31:46;3.05;;;2.40;;
30149;SDS011;16962;48.646;9.026;2023-08-12T15:38:25;3.30;;;2.85;;
30149;SDS011;16962;48.646;9.026;2023-08-12T15:45:00;3.83;;;3.00;;
30149;SDS011;16962;48.646;9.026;2023-08-12T15:48:32;4.68;;;2.65;;
30149;SDS011;16962;48.646;9.026;2023-08-12T15:51:31;5.47;;;3.05;;
30149;SDS011;16962;48.646;9.026;2023-08-12T15:54:51;4.95;;;2.70;;
30149;SDS011;16962;48.646;9.026;2023-08-12T15:57:39;4.65;;;2.90;;
30149;SDS011;16962;48.646;9.026;2023-08-12T16:04:23;4.07;;;2.58;;
30149;SDS011;16962;48.646;9.026;2023-08-12T16:07:50;4.55;;;2.60;;
30149;SDS011;16962;48.646;9.026;2023-08-12T16:11:06;3.67;;;2.92;;
30149;SDS011;16962;48.646;9.026;2023-08-12T16:14:01;6.70;;;3.92;;
30149;SDS011;16962;48.646;9.026;2023-08-12T16:16:48;4.65;;;3.63;;
30149;SDS011;16962;48.646;9.026;2023-08-12T16:19:41;8.02;;;4.03;;
30149;SDS011;16962;48.646;9.026;2023-08-12T16:22:41;6.38;;;4.13;;
30149;SDS011;16962;48.646;9.026;2023-08-12T16:25:30;5.93;;;3.63;;
30149;SDS011;16962;48.646;9.026;2023-08-12T16:28:17;6.55;;;4.18;;
30149;SDS011;16962;48.646;9.026;2023-08-12T16:31:18;9.65;;;5.18;;
30149;SDS011;16962;48.646;9.026;2023-08-12T16:34:07;10.52;;;5.10;;
30149;SDS011;16962;48.646;9.026;2023-08-12T16:36:57;8.55;;;6.15;;
30149;SDS011;16962;48.646;9.026;2023-08-12T16:40:06;7.82;;;6.70;;
30149;SDS011;16962;48.646;9.026;2023-08-12T16:43:10;11.77;;;7.03;;
30149;SDS011;16962;48.646;9.026;2023-08-12T16:45:59;8.55;;;6.90;;
30149;SDS011;16962;48.646;9.026;2023-08-12T16:48:51;13.25;;;8.00;;
30149;SDS011;16962;48.646;9.026;2023-08-12T16:51:41;12.18;;;7.75;;
30149;SDS011;16962;48.646;9.026;2023-08-12T16:54:35;12.40;;;8.40;;
30149;SDS011;16962;48.646;9.026;2023-08-12T16:57:22;9.75;;;8.55;;
30149;SDS011;16962;48.646;9.026;2023-08-12T17:00:21;13.63;;;8.30;;
30149;SDS011;16962;48.646;9.026;2023-08-12T17:03:09;10.32;;;8.35;;
30149;SDS011;16962;48.646;9.026;2023-08-12T17:05:57;10.75;;;8.10;;
30149;SDS011;16962;48.646;9.026;2023-08-12T17:08:46;12.55;;;8.93;;
30149;SDS011;16962;48.646;9.026;2023-08-12T17:11:46;9.27;;;6.97;;
30149;SDS011;16962;48.646;9.026;2023-08-12T17:14:36;7.43;;;6.65;;
30149;SDS011;16962;48.646;9.026;2023-08-12T17:17:23;6.85;;;5.80;;
30149;SDS011;16962;48.646;9.026;2023-08-12T17:20:10;6.32;;;5.22;;
30149;SDS011;16962;48.646;9.026;2023-08-12T17:22:58;7.20;;;5.90;;
30149;SDS011;16962;48.646;9.026;2023-08-12T17:25:49;9.70;;;5.82;;
30149;SDS011;16962;48.646;9.026;2023-08-12T17:28:36;8.10;;;5.60;;